Florian Schuster

Chief Scout - FC Augsburg
20 Feb 2028
Sunday
Process

Personality

Adaptability (3) Ambition (17) Controversy (18) Loyalty (16) Pressure (10) Professionalism (1) Sportsmanship (7) Temperament (12)

Profile

Coaching Style Democratic
License Continental A
Determination 12
Man Management 5
Motivating 12
Discipline 5
Job Satisfaction
71%
Fatigue
0%
Role Chief Scout
Wage 26.7K p/w
Contract 14.03.2029

Performance

Behaviour Good
Training Effectiveness
39%
Player Development
40%
Injury Prevention
55%
Tactical Implementation
55%

Recent Events

Attended a recruitment meeting now
Attended a recruitment meeting now
Recommended a transfer target now
Recommended a transfer target now
Recommended a transfer target now
Recommended a transfer target now
Assessed a player 7d ago
Assessed a player 7d ago

Currently Monitoring

238
Player Club Status Ability Confidence Watched Last Observed Latest Vote
Josh Nichols Tranmere Rovers Active 121 / 123 40% 5 15.02.2028 -
Daniel Banjaqui Benfica Active 116 / 129 40% 1 15.02.2028 -
Khalis Merah Toulouse FC Active 129 / 138 40% 1 15.02.2028 -
Izan Merino Málaga Active 127 / 132 40% 2 13.02.2028 -
Martim Cunha Porto Active 104 / 110 40% 3 13.02.2028 -
Myles Lewis-Skelly Birmingham Active 151 / 159 40% 3 13.02.2028 -
Avery Appiah Ajax Active 125 / 120 40% 1 12.02.2028 -
Kevin Vazquez Cruz Azul Active 134 / 144 40% 6 09.02.2028 -
Halam Loboa Tijuana Active 117 / 119 40% 4 09.02.2028 -
Lucas Høgsberg RC Strasbourg Active 140 / 141 40% 1 09.02.2028 -
Noahkai Banks Hamburger SV Active 130 / 140 40% 2 08.02.2028 -
Luis Otávio Colorado Rapids Active 115 / 121 40% 2 08.02.2028 -
Nathan De Cat Hamburger SV Active 135 / 143 40% 1 08.02.2028 -
Nhoa Sangui Chamois Niortais Active 128 / 132 40% 1 07.02.2028 -
Archie Gray Derby County Active 158 / 152 40% 3 31.01.2028 -
Mikkel Hope Haugesund Active 102 / 107 40% 3 31.01.2028 -
Esquerdinha Shrewsbury Town Negotiating 118 / 126 40% 4 31.01.2028 -
Ernie Weaver AFC Wimbledon Negotiating 114 / 121 40% 2 24.01.2028 -
Trey Nyoni Rotherham United Active 139 / 141 40% 2 24.01.2028 -
Rivaldo Grobler Free State Stars Active 92 / 115 40% 1 24.01.2028 -
Marc Bernal Real Sociedad Active 153 / 154 40% 3 17.01.2028 -
Ronan Kpakio Cardiff City Lost 121 / 131 40% 4 17.01.2028 -
Alpha Touré FC Metz Lost 118 / 125 40% 1 17.01.2028 -
Mao Hosoya Everton Negotiating 134 / 135 67% 1 01.01.2028 Approve
Federico Pereira Nacional Negotiating 135 / 135 68% 1 01.01.2028 Approve
Ricky Atletico Venezuela Active 96 / 98 40% 2 22.12.2027 -
Giovanni Leoni Bradford City Active 136 / 145 40% 3 22.12.2027 -
Givairo Read Feyenoord Active 143 / 155 40% 4 19.12.2027 -
Jussef Nasrawe SV Ried Active 107 / 111 40% 5 17.12.2027 -
Sebastián Ramírez Jaguares Active 95 / 119 40% 2 17.12.2027 -
Eduardo Felicíssimo Sporting CP Active 123 / 124 40% 1 16.12.2027 -
Fodé Sylla Sion Active 114 / 129 40% 2 15.12.2027 -
Mads Bomholt Stabaek Active 118 / 111 40% 5 14.12.2027 -
Ayden Heaven Luton Town Active 147 / 149 40% 2 13.12.2027 -
Buba Sangaré Elche Active 122 / 135 40% 1 13.12.2027 -
Joel Ezra Enyimba Active 87 / 104 40% 5 12.12.2027 -
Kauã Moraes Cruzeiro Active 120 / 136 40% 2 12.12.2027 -
Olivier Mambwa Young Boys Active 116 / 122 40% 4 10.12.2027 -
Tiago Parente Benfica Active 105 / 111 40% 1 08.12.2027 -
Victor Froholdt Porto Active 146 / 162 40% 1 07.12.2027 -
Stefan Lainer Lugano Active 111 / 112 40% 1 07.12.2027 -
Matteo Pérez Vinlöf Dinamo Zagreb Active 127 / 124 40% 5 03.12.2027 -
Bahia Criciuma Active 124 / 124 40% 1 03.12.2027 -
Bung Meng Freimann Luzern Active 119 / 117 40% 2 02.12.2027 -
Alejandro Almaraz Nueva Chicago Active 119 / 116 40% 3 30.11.2027 -
Caleb Yirenkyi Coventry City Active 148 / 143 40% 3 29.11.2027 -
Jorge Salinas Racing Santander Active 133 / 132 40% 2 28.11.2027 -
Mauro Carrizo Atlético Tucumán Active 104 / 111 40% 5 28.11.2027 -
Pape Diong Westerlo Active 116 / 129 40% 1 26.11.2027 -
Christos Mouzakitis Hull City Active 145 / 143 40% 2 25.11.2027 -
Jovan Milosavljević Kalmar FF Active 96 / 106 40% 2 22.11.2027 -
Felipe Faúndez O'Higgins Active 95 / 102 40% 4 20.11.2027 -
Laurent Batshuayi PSV Active 141 / 145 40% 1 18.11.2027 -
Dmitry Pestryakov Dinamo Moscow Active 113 / 124 40% 2 17.11.2027 -
Fillip Jenssen Riise Stabaek Active 92 / 107 40% 2 10.11.2027 -
Juan Morán Godoy Cruz Active 99 / 116 40% 3 10.11.2027 -
Celías Ingenthron Vélez Active 128 / 128 40% 3 02.11.2027 -
Sam Curtis Cambridge United Active 108 / 110 40% 1 01.11.2027 -
David Valencia Alianza Petrolera Active 112 / 134 40% 3 24.10.2027 -
Olaniyi Saheed Kwara United Active 86 / 96 40% 2 24.10.2027 -
Jaydee Canvot AJ Auxerre Active 136 / 140 40% 1 19.10.2027 -
Mio Zimmermann Luzern Active 107 / 109 40% 1 13.10.2027 -
Neil Volken Zurich Active 106 / 105 40% 2 12.10.2027 -
Nazareno Roselli Defensa y Justicia Active 116 / 121 40% 1 11.10.2027 -
Yiandro Raap Ilves Active 102 / 98 40% 1 10.10.2027 -
Jakob Schöller Rapid Wien Active 113 / 115 40% 1 08.10.2027 -
Felipe Obradovich Ferro Carril Oeste Active 94 / 123 40% 1 07.10.2027 -
Hervin Goyes Deportivo Pasto Active 94 / 109 40% 1 05.10.2027 -
Eliás Montiel Werder Bremen Active 134 / 134 40% 1 28.09.2027 -
Figueiredo Sampaio Correa Active 95 / 91 40% 2 25.09.2027 -
Josh King Chelsea Active 149 / 149 40% 2 24.09.2027 -
Kosta Nedeljković Aston Villa Active 135 / 141 40% 1 17.09.2027 -
Gadiel Paoli River Plate Active 80 / 105 40% 1 16.09.2027 -
Yusi Alavés Active 142 / 138 40% 4 15.09.2027 -
Héctor Fort Real Sociedad Active 143 / 142 40% 1 14.09.2027 -
Mbekezeli Mbokazi Chicago Fire Active 117 / 135 40% 1 11.09.2027 -
Aljoscha Kemlein Union Berlin Active 132 / 131 62% 1 09.08.2027 Approve
Luis Vázquez Birmingham Active 131 / 130 40% 4 05.07.2027 -
Adrián Niño Málaga Active 135 / 125 40% 3 05.07.2027 -
Ricardo Pepi Chelsea Negotiating 142 / 145 93% 1 01.06.2027 -
Joane Gadou Borussia Dortmund Active 125 / 131 62% 1 01.06.2027 Approve
Andrés Martín Racing Santander Active 131 / 131 40% 9 30.05.2027 -
Joe Gelhardt Hull City Active 130 / 132 40% 1 29.05.2027 -
Maroan Sannadi Athletic Bilbao Active 137 / 140 40% 1 29.05.2027 -
Georges Mikautadze Villarreal Active 146 / 151 40% 9 27.05.2027 -
Thiago Brentford Active 151 / 150 40% 2 27.05.2027 -
Daniel Kelly Oxford United Active 103 / 120 40% 1 27.05.2027 -
Georginio Rutter Brighton Active 142 / 145 40% 7 22.05.2027 -
Ozziel Herrera Tigres Active 125 / 131 40% 3 22.05.2027 -
Víctor Mollejo Burgos Active 119 / 118 40% 2 20.05.2027 -
Tommy Conway Middlesbrough Active 140 / 132 40% 2 19.05.2027 -
Lee Bonis Chesterfield Active 96 / 106 40% 2 19.05.2027 -
Abel Ruiz Girona Active 133 / 140 40% 4 17.05.2027 -
Tyrese Campbell Sheffield United Active 123 / 129 40% 1 17.05.2027 -
Ilyas Ansah Hull City Active 125 / 133 40% 3 14.05.2027 -
Dom Ballard Leyton Orient Active 116 / 123 40% 2 14.05.2027 -
Ez Abde Girona Active 148 / 153 40% 5 13.05.2027 -
Adam Hložek TSG Hoffenheim Active 142 / 132 40% 3 13.05.2027 -
Diego López Rayo Vallecano Active 134 / 134 40% 4 12.05.2027 -
Hugo Duro Valencia Active 141 / 139 40% 3 12.05.2027 -
Joaquín Panichelli Le Havre AC Active 141 / 142 40% 1 10.05.2027 -
Jobe Bellingham Köln Active 136 / 142 40% 4 08.05.2027 -
Lorent Tolaj Plymouth Argyle Active 122 / 123 40% 2 03.05.2027 -
Troy Parrott Betis Active 132 / 134 40% 2 03.05.2027 -
Davide Bartesaghi AC Milan Active 131 / 137 40% 1 03.05.2027 -
Will Lankshear Middlesbrough Active 127 / 126 40% 2 30.04.2027 -
Rômulo RB Leipzig Active 150 / 143 40% 1 29.04.2027 -
Aune Heggebø West Bromwich Albion Active 136 / 124 40% 2 26.04.2027 -
Giacomo Raspadori Atalanta Active 149 / 146 40% 7 25.04.2027 -
Robert Mizo Ashanti Gold Active 95 / 107 40% 1 25.04.2027 -
Matías Gómez Granada Active 119 / 125 40% 1 22.04.2027 -
Jonas Harder Basel Active 104 / 122 40% 1 19.04.2027 -
Richard Koné Queens Park Rangers Active 127 / 124 40% 4 16.04.2027 -
Assane Diao Lazio Active 143 / 152 40% 2 15.04.2027 -
Dávid Strelec Middlesbrough Active 144 / 139 40% 1 15.04.2027 -
Jonathan Dubasin Osasuna Active 143 / 143 40% 1 14.04.2027 -
Mandla Mahlangu Ajax Cape Town Active 114 / 103 40% 2 12.04.2027 -
Yuito Suzuki SC Freiburg Active 129 / 136 40% 1 11.04.2027 -
Yousef Salech Cardiff City Active 124 / 130 40% 3 09.04.2027 -
Derry Scherhant SC Freiburg Active 133 / 125 40% 1 06.04.2027 -
Takefusa Kubo Real Sociedad Active 157 / 158 40% 4 04.04.2027 -
Wilson Isidor Sunderland Active 132 / 136 40% 2 03.04.2027 -
Ansu Fati Monaco Active 145 / 141 40% 1 02.04.2027 -
Dango Ouattara Brentford Active 153 / 144 40% 3 01.04.2027 -
Iwan Morgan Grimsby Town Active 109 / 114 40% 1 01.04.2027 -
Tani Oluwaseyi Villarreal Active 152 / 138 40% 5 30.03.2027 -
Toni Tamarit Alverca Active 113 / 121 40% 1 29.03.2027 -
Daniel Vernattus Metalist Active 88 / 100 40% 1 29.03.2027 -
Nicolas Jackson Aston Villa Active 142 / 151 40% 2 26.03.2027 -
Mateo Pellegrino Fiorentina Active 143 / 141 40% 2 25.03.2027 -
Christ Inao Oulaï Fiorentina Active 126 / 143 40% 1 21.03.2027 -
Tiago Freitas Benfica Active 111 / 112 40% 1 17.03.2027 -
Percy Jali Free State Stars Active 92 / 96 40% 1 17.03.2027 -
Andrea Pinamonti Lazio Active 142 / 141 40% 3 16.03.2027 -
Tom Cannon Sheffield United Active 124 / 126 40% 2 10.03.2027 -
Evidence Makgopa Orlando Pirates Active 117 / 120 40% 1 09.03.2027 -
Adriano Bertaccini Anderlecht Active 120 / 127 40% 1 05.03.2027 -
Terem Moffi Hamburger SV Active 122 / 131 40% 1 05.03.2027 -
Jack Hinshelwood Brighton Active 145 / 149 40% 1 04.03.2027 -
Tyreece Campbell Charlton Athletic Active 114 / 119 40% 1 02.03.2027 -
Cheveyo Tsawa Club Brugge Active 124 / 130 40% 2 28.02.2027 -
Gonçalo Oliveira Benfica Active 114 / 109 40% 1 28.02.2027 -
Joaquin Seys Club Brugge Active 119 / 131 40% 2 24.02.2027 -
Nicolò Tresoldi Club Brugge Active 135 / 130 40% 1 21.02.2027 -
Adnan Courtois KV Oostende Active 135 / 135 40% 1 18.02.2027 -
Keagan Phiri Platinum Stars Active 97 / 102 40% 1 16.02.2027 -
Morgan Whittaker Middlesbrough Active 133 / 128 40% 1 16.02.2027 -
Roberto Fernández Braga Active 145 / 141 40% 1 11.02.2027 -
Thijmen Blokzijl Groningen Active 122 / 122 40% 1 10.02.2027 -
José Pachuca Puebla Active 120 / 112 40% 1 08.02.2027 -
Mexx Meerdink AZ Active 137 / 128 40% 1 04.02.2027 -
Marvin Keller Bayer Leverkusen Negotiating 136 / 137 67% 1 01.01.2027 -
Rogério VfL Wolfsburg Active 134 / 125 55% 1 01.01.2027 -
Mikel Jauregizar Athletic Bilbao Active 161 / 159 40% 1 29.12.2026 -
Christian Krasnodar Active 144 / 135 40% 4 28.12.2026 -
Hugo Álvarez Celta Active 133 / 140 40% 2 27.12.2026 -
Othmane Maamma Watford Active 124 / 121 40% 1 27.12.2026 -
Marquinhos Spartak Moscow Active 136 / 135 40% 2 26.12.2026 -
Jack Rudoni Coventry City Active 131 / 134 40% 1 25.12.2026 -
Diego Lainez Tigres Active 123 / 127 40% 2 23.12.2026 -
Lucien Agoumé Sevilla Active 147 / 138 40% 1 23.12.2026 -
Iliman N'Diaye Everton Active 158 / 158 40% 3 21.12.2026 -
Jarrad Branthwaite Everton Active 159 / 154 40% 1 21.12.2026 -
Jesús Vázquez Valencia Active 129 / 142 40% 1 21.12.2026 -
Pol Lozano Espanyol Active 136 / 137 40% 2 16.12.2026 -
Mats Wieffer Brighton Active 142 / 151 40% 2 15.12.2026 -
Félix Lemaréchal Club Brugge Active 138 / 140 40% 2 15.12.2026 -
Jacob Ramsey Newcastle United Active 152 / 143 40% 3 14.12.2026 -
Amine Adli Bournemouth Active 135 / 143 40% 2 14.12.2026 -
Víctor Gómez Braga Active 150 / 134 40% 1 14.12.2026 -
Aimar Osasuna Active 148 / 146 40% 3 12.12.2026 -
Miguel Gutiérrez Bayer Leverkusen Active 150 / 150 40% 2 12.12.2026 -
Carlos Vicente Birmingham Active 152 / 146 40% 5 11.12.2026 -
Derensili Sanches Fernandes Huddersfield Town Active 134 / 122 40% 1 11.12.2026 -
Nico Williams Athletic Bilbao Active 176 / 167 40% 1 10.12.2026 -
Nicolas Seiwald RB Leipzig Active 146 / 151 40% 1 08.12.2026 -
Juanlu Bournemouth Active 140 / 151 40% 1 08.12.2026 -
Gabriel Martinelli Brighton Active 160 / 157 40% 2 06.12.2026 -
José Ángel Carmona Sevilla Active 156 / 149 40% 1 06.12.2026 -
Brian Gutiérrez Guadalajara Active 137 / 131 40% 2 04.12.2026 -
Matt O'Riley Brighton Active 138 / 139 40% 2 02.12.2026 -
Couhaib Driouech Celta Active 139 / 136 40% 1 01.12.2026 -
Yehor Yarmoliuk Brentford Active 152 / 153 40% 1 30.11.2026 -
Arnau Martínez Valencia Active 151 / 145 40% 1 30.11.2026 -
Kevin Fulham Active 144 / 150 40% 1 28.11.2026 -
Samuel Lino Flamengo Active 123 / 146 40% 1 26.11.2026 Needs More Info
Carlos Alcaraz Everton Active 135 / 141 40% 1 26.11.2026 -
Amadou Onana Aston Villa Active 152 / 157 40% 2 24.11.2026 -
Alvyn Sanches Young Boys Active 121 / 131 40% 3 23.11.2026 -
Aaron Hickey Brentford Active 149 / 147 40% 1 23.11.2026 -
Tyler Adams Bournemouth Active 156 / 154 40% 1 20.11.2026 -
Jadon Sancho Manchester United Active 140 / 153 40% 2 18.11.2026 -
Pape Guèye Villarreal Active 145 / 151 40% 2 16.11.2026 -
Sven Botman Newcastle United Active 150 / 163 40% 1 16.11.2026 -
Malik Tillman Bayer Leverkusen Active 153 / 155 40% 1 16.11.2026 -
Xavi Simons Tottenham Active 164 / 163 40% 1 14.11.2026 -
Anel Ahmedhodžić Burnley Active 139 / 136 40% 1 13.11.2026 -
Tyrell Malacia Monaco Active 137 / 133 40% 1 13.11.2026 -
Christoph Baumgartner RB Leipzig Active 164 / 145 40% 2 12.11.2026 -
Nico González Newcastle United Active 168 / 157 40% 1 10.11.2026 -
Gavi Barcelona Active 162 / 165 40% 1 10.11.2026 -
Ferdi Kadıoğlu Brighton Active 154 / 150 40% 1 07.11.2026 -
Angelo Stiller VfB Stuttgart Active 142 / 153 40% 1 07.11.2026 -
Bryan Gil Girona Active 140 / 144 40% 1 04.11.2026 -
Bilal El Khannouss VfB Stuttgart Active 152 / 154 40% 2 01.11.2026 -
Christian Witzig St. Gallen Active 126 / 118 40% 1 01.11.2026 -
Mattia Zanotti Lugano Active 125 / 126 40% 2 31.10.2026 -
Moussa Diaby Bayer Leverkusen Active 157 / 150 40% 1 30.10.2026 -
Justin Kluivert Bournemouth Active 146 / 150 40% 1 27.10.2026 -
Yeremy Pino Crystal Palace Active 138 / 144 40% 3 21.10.2026 -
Rémi Lemoine Chamois Niortais Active 166 / 153 40% 1 18.10.2026 -
Maurits Kjærgaard Red Bull Salzburg Active 139 / 128 40% 1 17.10.2026 -
Marcelo Allende Mamelodi Sundowns Active 129 / 120 40% 1 17.10.2026 -
Finn Azaz Southampton Active 135 / 124 40% 1 16.10.2026 -
Elliot Anderson Manchester City Active 142 / 150 40% 1 13.10.2026 -
Javi Rodríguez Celta Active 149 / 149 40% 1 05.10.2026 -
Curtis Jones Inter Active 149 / 155 40% 1 05.10.2026 -
Mayckel Lahdo Malmo FF Active 117 / 127 40% 1 02.10.2026 -
Nuno Moreira Vasco da Gama Active 146 / 134 40% 1 02.10.2026 -
Iván Angulo Orlando City Active 137 / 122 40% 2 01.10.2026 -
Adrien Truffert Bournemouth Active 150 / 144 40% 1 30.09.2026 -
Adam Wharton Crystal Palace Active 145 / 153 40% 1 29.09.2026 -
Brian Rodríguez Club America Active 111 / 122 40% 1 26.09.2026 -
Isaac Schmidt Young Boys Active 119 / 120 40% 2 25.09.2026 -
Santiago Rodríguez Columbus Crew Active 146 / 118 40% 1 25.09.2026 -
Tiago Palacios Estudiantes Active 109 / 123 40% 1 23.09.2026 -
Yorbe Vertessen Red Bull Salzburg Active 114 / 130 40% 1 14.09.2026 -
Jacob Greaves Ipswich Town Active 123 / 128 40% 1 13.09.2026 -
Ilaix Moriba Celta Active 141 / 151 40% 1 13.09.2026 -
Callum Hudson-Odoi Nottingham Forest Active 153 / 152 40% 1 12.09.2026 -
Hector Ramirez Newcastle United Active 157 / 156 40% 1 11.09.2026 -
Bryan Ramírez FC Cincinnati Active 135 / 128 40% 1 09.09.2026 -
Neco Williams Nottingham Forest Active 139 / 140 40% 1 08.09.2026 -
Cheick Doucouré Crystal Palace Active 128 / 136 40% 1 08.09.2026 -
El Hadji Malick Diouf Brentford Active 144 / 143 40% 1 01.09.2026 -
Nico O'Reilly Manchester City Active 163 / 152 40% 1 01.09.2026 -
Nicolás Ibáñez Mainz 05 Active 128 / 127 40% 1 10.08.2026 -
Serhou Guirassy Borussia Dortmund Active 174 / 168 40% 1 01.08.2026 -